sensor_id;sensor_type;location;lat;lon;timestamp;temperature;humidity
3281;DHT22;1652;51.318;6.202;2023-03-21T00:00:58;10.60;99.90
3281;DHT22;1652;51.318;6.202;2023-03-21T00:03:26;10.60;99.90
3281;DHT22;1652;51.318;6.202;2023-03-21T00:05:53;10.60;99.90
3281;DHT22;1652;51.318;6.202;2023-03-21T00:13:24;10.50;99.90
3281;DHT22;1652;51.318;6.202;2023-03-21T00:15:52;10.50;99.90
3281;DHT22;1652;51.318;6.202;2023-03-21T00:18:47;10.40;99.90
3281;DHT22;1652;51.318;6.202;2023-03-21T00:21:20;10.40;99.90
3281;DHT22;1652;51.318;6.202;2023-03-21T00:24:07;10.40;99.90
3281;DHT22;1652;51.318;6.202;2023-03-21T00:26:34;10.50;99.90
3281;DHT22;1652;51.318;6.202;2023-03-21T00:29:01;10.50;99.90
3281;DHT22;1652;51.318;6.202;2023-03-21T00:31:28;10.50;99.90
3281;DHT22;1652;51.318;6.202;2023-03-21T00:33:55;10.50;99.90
3281;DHT22;1652;51.318;6.202;2023-03-21T00:36:22;10.40;99.90
3281;DHT22;1652;51.318;6.202;2023-03-21T00:38:52;10.40;99.90
3281;DHT22;1652;51.318;6.202;2023-03-21T00:41:19;10.40;99.90
3281;DHT22;1652;51.318;6.202;2023-03-21T00:44:05;10.40;99.90
3281;DHT22;1652;51.318;6.202;2023-03-21T00:46:32;10.40;99.90
3281;DHT22;1652;51.318;6.202;2023-03-21T00:49:14;10.50;99.90
3281;DHT22;1652;51.318;6.202;2023-03-21T00:51:42;10.40;99.90
3281;DHT22;1652;51.318;6.202;2023-03-21T00:54:11;10.40;99.90
3281;DHT22;1652;51.318;6.202;2023-03-21T00:56:38;10.40;99.90
3281;DHT22;1652;51.318;6.202;2023-03-21T00:59:05;10.40;99.90
3281;DHT22;1652;51.318;6.202;2023-03-21T01:01:31;10.40;99.90
3281;DHT22;1652;51.318;6.202;2023-03-21T01:04:01;10.30;99.90
3281;DHT22;1652;51.318;6.202;2023-03-21T01:06:41;10.30;99.90
3281;DHT22;1652;51.318;6.202;2023-03-21T01:11:34;10.30;99.90
3281;DHT22;1652;51.318;6.202;2023-03-21T01:14:01;10.20;99.90
3281;DHT22;1652;51.318;6.202;2023-03-21T01:16:46;10.10;99.90
3281;DHT22;1652;51.318;6.202;2023-03-21T01:19:17;10.20;99.90
3281;DHT22;1652;51.318;6.202;2023-03-21T01:21:55;10.20;99.90
3281;DHT22;1652;51.318;6.202;2023-03-21T01:24:22;10.20;99.90
3281;DHT22;1652;51.318;6.202;2023-03-21T01:26:48;10.20;99.90
3281;DHT22;1652;51.318;6.202;2023-03-21T01:29:15;10.10;99.90
3281;DHT22;1652;51.318;6.202;2023-03-21T01:31:42;10.10;99.90
3281;DHT22;1652;51.318;6.202;2023-03-21T01:34:09;10.10;99.90
3281;DHT22;1652;51.318;6.202;2023-03-21T01:36:36;10.00;99.90
3281;DHT22;1652;51.318;6.202;2023-03-21T01:39:04;10.00;99.90
3281;DHT22;1652;51.318;6.202;2023-03-21T01:41:38;10.00;99.90
3281;DHT22;1652;51.318;6.202;2023-03-21T01:44:14;10.00;99.90
3281;DHT22;1652;51.318;6.202;2023-03-21T01:46:42;10.00;99.90
3281;DHT22;1652;51.318;6.202;2023-03-21T01:49:32;9.90;99.90
3281;DHT22;1652;51.318;6.202;2023-03-21T01:52:05;9.90;99.90
3281;DHT22;1652;51.318;6.202;2023-03-21T01:54:42;9.90;99.90
3281;DHT22;1652;51.318;6.202;2023-03-21T01:57:16;9.90;99.90
3281;DHT22;1652;51.318;6.202;2023-03-21T01:59:49;9.80;99.90
3281;DHT22;1652;51.318;6.202;2023-03-21T02:02:23;9.80;99.90
3281;DHT22;1652;51.318;6.202;2023-03-21T03:28:55;9.80;99.90
3281;DHT22;1652;51.318;6.202;2023-03-21T03:31:31;9.60;99.90
3281;DHT22;1652;51.318;6.202;2023-03-21T03:34:09;9.60;99.90
3281;DHT22;1652;51.318;6.202;2023-03-21T03:36:43;9.70;99.90
3281;DHT22;1652;51.318;6.202;2023-03-21T03:39:14;9.70;99.90
3281;DHT22;1652;51.318;6.202;2023-03-21T03:41:49;9.70;99.90
3281;DHT22;1652;51.318;6.202;2023-03-21T03:44:37;9.70;99.90
3281;DHT22;1652;51.318;6.202;2023-03-21T03:47:07;9.60;99.90
3281;DHT22;1652;51.318;6.202;2023-03-21T03:49:46;9.60;99.90
3281;DHT22;1652;51.318;6.202;2023-03-21T03:52:26;9.60;99.90
3281;DHT22;1652;51.318;6.202;2023-03-21T03:54:55;9.50;99.90
3281;DHT22;1652;51.318;6.202;2023-03-21T03:57:24;9.50;99.90
3281;DHT22;1652;51.318;6.202;2023-03-21T03:59:52;9.50;99.90
3281;DHT22;1652;51.318;6.202;2023-03-21T04:02:18;9.50;99.90
3281;DHT22;1652;51.318;6.202;2023-03-21T04:04:47;9.50;99.90
3281;DHT22;1652;51.318;6.202;2023-03-21T04:07:19;9.40;99.90
3281;DHT22;1652;51.318;6.202;2023-03-21T04:09:47;9.40;99.90
3281;DHT22;1652;51.318;6.202;2023-03-21T04:12:14;9.50;99.90
3281;DHT22;1652;51.318;6.202;2023-03-21T04:14:41;9.40;99.90
3281;DHT22;1652;51.318;6.202;2023-03-21T04:17:13;9.40;99.90
3281;DHT22;1652;51.318;6.202;2023-03-21T04:19:40;9.30;99.90
3281;DHT22;1652;51.318;6.202;2023-03-21T04:22:08;9.30;99.90
3281;DHT22;1652;51.318;6.202;2023-03-21T04:24:34;9.20;99.90
3281;DHT22;1652;51.318;6.202;2023-03-21T04:27:03;9.30;99.90
3281;DHT22;1652;51.318;6.202;2023-03-21T04:29:32;9.20;99.90
3281;DHT22;1652;51.318;6.202;2023-03-21T04:31:59;9.30;99.90
3281;DHT22;1652;51.318;6.202;2023-03-21T04:34:27;9.20;99.90
3281;DHT22;1652;51.318;6.202;2023-03-21T04:36:55;9.20;99.90
3281;DHT22;1652;51.318;6.202;2023-03-21T04:39:22;9.20;99.90
3281;DHT22;1652;51.318;6.202;2023-03-21T04:41:50;9.20;99.90
3281;DHT22;1652;51.318;6.202;2023-03-21T04:44:17;9.20;99.90
3281;DHT22;1652;51.318;6.202;2023-03-21T04:46:44;9.20;99.90
3281;DHT22;1652;51.318;6.202;2023-03-21T04:49:11;9.10;99.90
3281;DHT22;1652;51.318;6.202;2023-03-21T04:51:38;9.10;99.90
3281;DHT22;1652;51.318;6.202;2023-03-21T04:54:05;9.20;99.90
3281;DHT22;1652;51.318;6.202;2023-03-21T04:56:32;9.20;99.90
3281;DHT22;1652;51.318;6.202;2023-03-21T04:59:10;9.20;99.90
3281;DHT22;1652;51.318;6.202;2023-03-21T05:01:37;9.20;99.90
3281;DHT22;1652;51.318;6.202;2023-03-21T05:04:06;9.20;99.90
3281;DHT22;1652;51.318;6.202;2023-03-21T05:06:33;9.30;99.90
3281;DHT22;1652;51.318;6.202;2023-03-21T05:11:34;9.10;99.90
3281;DHT22;1652;51.318;6.202;2023-03-21T05:14:08;9.10;99.90
3281;DHT22;1652;51.318;6.202;2023-03-21T05:16:37;9.10;99.90
3281;DHT22;1652;51.318;6.202;2023-03-21T05:19:04;9.10;99.90
3281;DHT22;1652;51.318;6.202;2023-03-21T05:21:32;9.10;99.90
3281;DHT22;1652;51.318;6.202;2023-03-21T05:24:08;9.20;99.90
3281;DHT22;1652;51.318;6.202;2023-03-21T05:26:39;9.20;99.90
3281;DHT22;1652;51.318;6.202;2023-03-21T05:29:06;9.30;99.90
3281;DHT22;1652;51.318;6.202;2023-03-21T05:31:33;9.30;99.90
3281;DHT22;1652;51.318;6.202;2023-03-21T05:34:00;9.40;99.90
3281;DHT22;1652;51.318;6.202;2023-03-21T05:36:26;9.40;99.90
3281;DHT22;1652;51.318;6.202;2023-03-21T05:38:53;9.30;99.90
3281;DHT22;1652;51.318;6.202;2023-03-21T05:41:20;9.30;99.90
3281;DHT22;1652;51.318;6.202;2023-03-21T05:43:47;9.30;99.90
3281;DHT22;1652;51.318;6.202;2023-03-21T05:46:14;9.40;99.90
3281;DHT22;1652;51.318;6.202;2023-03-21T05:48:40;9.40;99.90
3281;DHT22;1652;51.318;6.202;2023-03-21T05:51:07;9.40;99.90
3281;DHT22;1652;51.318;6.202;2023-03-21T05:53:34;9.50;99.90
3281;DHT22;1652;51.318;6.202;2023-03-21T05:56:01;9.50;99.90
3281;DHT22;1652;51.318;6.202;2023-03-21T05:58:28;9.50;99.90
3281;DHT22;1652;51.318;6.202;2023-03-21T06:00:55;9.50;99.90
3281;DHT22;1652;51.318;6.202;2023-03-21T06:03:22;9.50;99.90
3281;DHT22;1652;51.318;6.202;2023-03-21T06:05:48;9.50;99.90
3281;DHT22;1652;51.318;6.202;2023-03-21T06:08:15;9.50;99.90
3281;DHT22;1652;51.318;6.202;2023-03-21T06:10:42;9.50;99.90
3281;DHT22;1652;51.318;6.202;2023-03-21T06:13:09;9.50;99.90
3281;DHT22;1652;51.318;6.202;2023-03-21T06:15:36;9.60;99.90
3281;DHT22;1652;51.318;6.202;2023-03-21T06:18:03;9.70;99.90
3281;DHT22;1652;51.318;6.202;2023-03-21T06:20:29;9.70;99.90
3281;DHT22;1652;51.318;6.202;2023-03-21T06:22:56;9.80;99.90
3281;DHT22;1652;51.318;6.202;2023-03-21T06:25:23;9.80;99.90
3281;DHT22;1652;51.318;6.202;2023-03-21T06:27:50;9.80;99.90
3281;DHT22;1652;51.318;6.202;2023-03-21T06:30:17;9.90;99.90
3281;DHT22;1652;51.318;6.202;2023-03-21T06:32:44;9.90;99.90
3281;DHT22;1652;51.318;6.202;2023-03-21T06:35:11;10.00;99.90
3281;DHT22;1652;51.318;6.202;2023-03-21T06:37:38;9.90;99.90
3281;DHT22;1652;51.318;6.202;2023-03-21T06:40:05;10.00;99.90
3281;DHT22;1652;51.318;6.202;2023-03-21T06:42:32;10.00;99.90
3281;DHT22;1652;51.318;6.202;2023-03-21T06:44:59;10.10;99.90
3281;DHT22;1652;51.318;6.202;2023-03-21T06:47:26;10.10;99.90
3281;DHT22;1652;51.318;6.202;2023-03-21T06:49:53;10.20;99.90
3281;DHT22;1652;51.318;6.202;2023-03-21T06:52:20;10.20;99.90
3281;DHT22;1652;51.318;6.202;2023-03-21T06:54:46;10.20;99.90
3281;DHT22;1652;51.318;6.202;2023-03-21T06:57:13;10.20;99.90
3281;DHT22;1652;51.318;6.202;2023-03-21T06:59:40;10.30;99.90
3281;DHT22;1652;51.318;6.202;2023-03-21T07:02:09;10.30;99.90
3281;DHT22;1652;51.318;6.202;2023-03-21T07:04:36;10.40;99.90
3281;DHT22;1652;51.318;6.202;2023-03-21T07:07:03;10.40;99.90
3281;DHT22;1652;51.318;6.202;2023-03-21T07:09:30;10.40;99.90
3281;DHT22;1652;51.318;6.202;2023-03-21T07:11:57;10.50;99.90
3281;DHT22;1652;51.318;6.202;2023-03-21T07:14:23;10.60;99.90
3281;DHT22;1652;51.318;6.202;2023-03-21T07:16:51;10.60;99.90
3281;DHT22;1652;51.318;6.202;2023-03-21T07:19:18;10.60;99.90
3281;DHT22;1652;51.318;6.202;2023-03-21T07:21:44;10.60;99.90
3281;DHT22;1652;51.318;6.202;2023-03-21T07:24:11;10.60;99.90
3281;DHT22;1652;51.318;6.202;2023-03-21T07:26:38;10.70;99.90
3281;DHT22;1652;51.318;6.202;2023-03-21T07:29:05;10.70;99.90
3281;DHT22;1652;51.318;6.202;2023-03-21T07:31:32;10.80;99.90
3281;DHT22;1652;51.318;6.202;2023-03-21T07:33:58;10.80;99.90
3281;DHT22;1652;51.318;6.202;2023-03-21T07:36:26;10.90;99.90
3281;DHT22;1652;51.318;6.202;2023-03-21T07:38:53;10.90;99.90
3281;DHT22;1652;51.318;6.202;2023-03-21T07:41:20;10.80;99.90
3281;DHT22;1652;51.318;6.202;2023-03-21T07:43:47;10.80;99.90
3281;DHT22;1652;51.318;6.202;2023-03-21T07:46:14;10.80;99.90
3281;DHT22;1652;51.318;6.202;2023-03-21T07:48:40;10.80;99.90
3281;DHT22;1652;51.318;6.202;2023-03-21T07:51:07;10.80;99.90
3281;DHT22;1652;51.318;6.202;2023-03-21T07:53:35;10.70;99.90
3281;DHT22;1652;51.318;6.202;2023-03-21T07:56:02;10.70;99.90
3281;DHT22;1652;51.318;6.202;2023-03-21T07:58:29;10.80;99.90
3281;DHT22;1652;51.318;6.202;2023-03-21T08:00:57;10.80;99.90
3281;DHT22;1652;51.318;6.202;2023-03-21T08:03:24;10.80;99.90
3281;DHT22;1652;51.318;6.202;2023-03-21T08:05:54;10.90;99.90
3281;DHT22;1652;51.318;6.202;2023-03-21T08:08:21;10.90;99.90
3281;DHT22;1652;51.318;6.202;2023-03-21T08:10:48;11.00;99.90
3281;DHT22;1652;51.318;6.202;2023-03-21T08:13:15;11.00;99.90
3281;DHT22;1652;51.318;6.202;2023-03-21T08:15:41;10.90;99.90
3281;DHT22;1652;51.318;6.202;2023-03-21T08:18:09;11.00;99.90
3281;DHT22;1652;51.318;6.202;2023-03-21T08:20:36;10.90;99.90
3281;DHT22;1652;51.318;6.202;2023-03-21T08:23:03;10.90;99.90
3281;DHT22;1652;51.318;6.202;2023-03-21T08:25:30;10.80;99.90
3281;DHT22;1652;51.318;6.202;2023-03-21T08:27:57;10.80;99.90
3281;DHT22;1652;51.318;6.202;2023-03-21T08:30:25;10.80;99.90
3281;DHT22;1652;51.318;6.202;2023-03-21T08:32:58;10.70;99.90
3281;DHT22;1652;51.318;6.202;2023-03-21T08:35:27;10.80;99.90
3281;DHT22;1652;51.318;6.202;2023-03-21T08:37:55;10.80;99.90
3281;DHT22;1652;51.318;6.202;2023-03-21T08:40:21;10.80;99.90
3281;DHT22;1652;51.318;6.202;2023-03-21T08:42:48;10.80;99.90
3281;DHT22;1652;51.318;6.202;2023-03-21T08:45:16;10.90;99.90
3281;DHT22;1652;51.318;6.202;2023-03-21T08:47:44;10.90;99.90
3281;DHT22;1652;51.318;6.202;2023-03-21T08:50:15;11.00;99.90
3281;DHT22;1652;51.318;6.202;2023-03-21T08:52:42;11.10;99.90
3281;DHT22;1652;51.318;6.202;2023-03-21T08:55:10;11.20;99.90
3281;DHT22;1652;51.318;6.202;2023-03-21T08:57:37;11.20;99.90
3281;DHT22;1652;51.318;6.202;2023-03-21T09:00:08;11.30;99.90
3281;DHT22;1652;51.318;6.202;2023-03-21T09:02:40;11.30;99.90
3281;DHT22;1652;51.318;6.202;2023-03-21T09:05:07;11.30;99.90
3281;DHT22;1652;51.318;6.202;2023-03-21T09:07:35;11.30;99.90
3281;DHT22;1652;51.318;6.202;2023-03-21T09:10:03;11.40;99.90
3281;DHT22;1652;51.318;6.202;2023-03-21T09:12:52;11.40;99.90
3281;DHT22;1652;51.318;6.202;2023-03-21T09:15:21;11.50;99.90
3281;DHT22;1652;51.318;6.202;2023-03-21T09:17:50;11.50;99.90
3281;DHT22;1652;51.318;6.202;2023-03-21T09:20:23;11.60;99.90
3281;DHT22;1652;51.318;6.202;2023-03-21T09:22:59;11.70;99.90
3281;DHT22;1652;51.318;6.202;2023-03-21T09:25:27;11.60;99.90
3281;DHT22;1652;51.318;6.202;2023-03-21T09:27:58;11.60;99.90
3281;DHT22;1652;51.318;6.202;2023-03-21T09:30:25;11.40;99.90
3281;DHT22;1652;51.318;6.202;2023-03-21T09:32:52;11.30;99.90
3281;DHT22;1652;51.318;6.202;2023-03-21T09:35:21;11.20;99.90
3281;DHT22;1652;51.318;6.202;2023-03-21T09:37:49;11.20;99.90
3281;DHT22;1652;51.318;6.202;2023-03-21T09:40:28;11.30;99.90
3281;DHT22;1652;51.318;6.202;2023-03-21T09:43:02;11.30;99.90
3281;DHT22;1652;51.318;6.202;2023-03-21T09:45:42;11.20;99.90
3281;DHT22;1652;51.318;6.202;2023-03-21T09:48:23;11.20;99.90
3281;DHT22;1652;51.318;6.202;2023-03-21T09:51:00;11.10;99.90
3281;DHT22;1652;51.318;6.202;2023-03-21T09:53:32;11.00;99.90
3281;DHT22;1652;51.318;6.202;2023-03-21T09:56:01;11.00;99.90
3281;DHT22;1652;51.318;6.202;2023-03-21T09:58:36;11.00;99.90
3281;DHT22;1652;51.318;6.202;2023-03-21T10:01:13;11.00;99.90
3281;DHT22;1652;51.318;6.202;2023-03-21T10:03:48;11.00;99.90
3281;DHT22;1652;51.318;6.202;2023-03-21T10:06:19;11.10;99.90
3281;DHT22;1652;51.318;6.202;2023-03-21T10:11:58;11.30;99.90
3281;DHT22;1652;51.318;6.202;2023-03-21T10:15:02;11.50;99.90
3281;DHT22;1652;51.318;6.202;2023-03-21T10:17:34;11.60;99.90
3281;DHT22;1652;51.318;6.202;2023-03-21T10:20:19;11.70;99.90
3281;DHT22;1652;51.318;6.202;2023-03-21T10:22:49;11.90;99.90
3281;DHT22;1652;51.318;6.202;2023-03-21T10:25:23;12.10;99.90
3281;DHT22;1652;51.318;6.202;2023-03-21T10:27:51;12.30;99.90
3281;DHT22;1652;51.318;6.202;2023-03-21T10:30:39;12.50;99.90
3281;DHT22;1652;51.318;6.202;2023-03-21T10:33:09;12.50;99.90
3281;DHT22;1652;51.318;6.202;2023-03-21T10:35:38;12.50;99.90
3281;DHT22;1652;51.318;6.202;2023-03-21T10:38:14;12.40;99.90
3281;DHT22;1652;51.318;6.202;2023-03-21T10:40:42;12.50;99.90
3281;DHT22;1652;51.318;6.202;2023-03-21T10:45:52;12.60;99.90
3281;DHT22;1652;51.318;6.202;2023-03-21T10:48:19;12.70;99.90
3281;DHT22;1652;51.318;6.202;2023-03-21T10:50:50;12.70;99.90
3281;DHT22;1652;51.318;6.202;2023-03-21T10:53:34;12.90;99.90
3281;DHT22;1652;51.318;6.202;2023-03-21T10:56:02;12.90;99.90
3281;DHT22;1652;51.318;6.202;2023-03-21T10:58:35;13.00;99.90
3281;DHT22;1652;51.318;6.202;2023-03-21T11:01:07;13.20;99.90
3281;DHT22;1652;51.318;6.202;2023-03-21T11:03:37;13.10;99.90
3281;DHT22;1652;51.318;6.202;2023-03-21T11:06:28;13.00;99.90
3281;DHT22;1652;51.318;6.202;2023-03-21T11:11:40;12.90;99.90
3281;DHT22;1652;51.318;6.202;2023-03-21T11:14:24;12.80;99.90
3281;DHT22;1652;51.318;6.202;2023-03-21T11:16:51;12.90;99.90
3281;DHT22;1652;51.318;6.202;2023-03-21T11:19:27;13.00;99.90
3281;DHT22;1652;51.318;6.202;2023-03-21T11:21:56;13.10;99.90
3281;DHT22;1652;51.318;6.202;2023-03-21T11:24:27;13.30;99.90
3281;DHT22;1652;51.318;6.202;2023-03-21T11:26:56;13.50;99.90
3281;DHT22;1652;51.318;6.202;2023-03-21T11:29:35;13.60;99.90
3281;DHT22;1652;51.318;6.202;2023-03-21T11:32:29;13.70;99.90
3281;DHT22;1652;51.318;6.202;2023-03-21T11:37:38;13.90;95.40
3281;DHT22;1652;51.318;6.202;2023-03-21T11:40:27;13.90;82.60
3281;DHT22;1652;51.318;6.202;2023-03-21T11:46:21;13.60;54.20
3281;DHT22;1652;51.318;6.202;2023-03-21T11:48:48;13.60;54.80
3281;DHT22;1652;51.318;6.202;2023-03-21T11:53:57;13.60;63.20
3281;DHT22;1652;51.318;6.202;2023-03-21T11:56:34;13.60;51.10
3281;DHT22;1652;51.318;6.202;2023-03-21T12:04:41;14.00;2.00
3281;DHT22;1652;51.318;6.202;2023-03-21T12:09:43;14.20;1.00
3281;DHT22;1652;51.318;6.202;2023-03-21T12:12:23;14.50;1.00
3281;DHT22;1652;51.318;6.202;2023-03-21T12:15:13;14.50;1.00
3281;DHT22;1652;51.318;6.202;2023-03-21T12:23:01;14.40;1.00
3281;DHT22;1652;51.318;6.202;2023-03-21T12:28:37;14.40;1.00
3281;DHT22;1652;51.318;6.202;2023-03-21T12:31:28;14.40;1.00
3281;DHT22;1652;51.318;6.202;2023-03-21T12:36:37;14.40;1.00
3281;DHT22;1652;51.318;6.202;2023-03-21T12:39:29;14.50;1.00
3281;DHT22;1652;51.318;6.202;2023-03-21T12:42:28;14.70;1.00
3281;DHT22;1652;51.318;6.202;2023-03-21T12:45:01;14.90;1.00
3281;DHT22;1652;51.318;6.202;2023-03-21T12:47:43;15.10;1.00
3281;DHT22;1652;51.318;6.202;2023-03-21T12:50:17;15.10;1.00
3281;DHT22;1652;51.318;6.202;2023-03-21T12:52:50;15.00;1.00
3281;DHT22;1652;51.318;6.202;2023-03-21T12:55:28;14.90;1.00
3281;DHT22;1652;51.318;6.202;2023-03-21T12:58:07;15.00;1.00
3281;DHT22;1652;51.318;6.202;2023-03-21T13:00:56;15.00;1.00
3281;DHT22;1652;51.318;6.202;2023-03-21T13:03:29;14.90;1.00
3281;DHT22;1652;51.318;6.202;2023-03-21T13:06:13;14.90;1.00
3281;DHT22;1652;51.318;6.202;2023-03-21T13:11:38;15.00;1.00
3281;DHT22;1652;51.318;6.202;2023-03-21T13:14:11;15.20;1.00
3281;DHT22;1652;51.318;6.202;2023-03-21T13:17:01;15.10;1.00
3281;DHT22;1652;51.318;6.202;2023-03-21T13:19:57;15.10;1.00
3281;DHT22;1652;51.318;6.202;2023-03-21T13:22:29;15.10;1.00
3281;DHT22;1652;51.318;6.202;2023-03-21T13:25:06;15.30;1.00
3281;DHT22;1652;51.318;6.202;2023-03-21T13:27:41;15.30;1.00
3281;DHT22;1652;51.318;6.202;2023-03-21T13:30:24;15.40;1.00
3281;DHT22;1652;51.318;6.202;2023-03-21T13:33:06;15.50;1.00
3281;DHT22;1652;51.318;6.202;2023-03-21T13:35:37;15.60;1.00
3281;DHT22;1652;51.318;6.202;2023-03-21T13:38:19;15.50;1.00
3281;DHT22;1652;51.318;6.202;2023-03-21T13:56:28;15.10;1.00
3281;DHT22;1652;51.318;6.202;2023-03-21T13:59:02;14.90;1.00
3281;DHT22;1652;51.318;6.202;2023-03-21T14:01:40;14.90;1.00
3281;DHT22;1652;51.318;6.202;2023-03-21T14:04:25;14.80;1.00
3281;DHT22;1652;51.318;6.202;2023-03-21T14:07:23;14.90;1.00
3281;DHT22;1652;51.318;6.202;2023-03-21T14:09:55;15.00;1.00
3281;DHT22;1652;51.318;6.202;2023-03-21T14:12:26;15.00;1.00
3281;DHT22;1652;51.318;6.202;2023-03-21T14:14:59;15.20;1.00
3281;DHT22;1652;51.318;6.202;2023-03-21T14:17:49;15.30;1.00
3281;DHT22;1652;51.318;6.202;2023-03-21T14:20:27;15.40;1.00
3281;DHT22;1652;51.318;6.202;2023-03-21T14:22:55;15.40;1.00
3281;DHT22;1652;51.318;6.202;2023-03-21T14:25:23;15.60;1.00
3281;DHT22;1652;51.318;6.202;2023-03-21T14:27:59;15.70;1.00
3281;DHT22;1652;51.318;6.202;2023-03-21T14:30:31;15.80;1.00
3281;DHT22;1652;51.318;6.202;2023-03-21T14:33:02;15.90;1.00
3281;DHT22;1652;51.318;6.202;2023-03-21T14:35:31;15.80;1.00
3281;DHT22;1652;51.318;6.202;2023-03-21T14:38:04;15.80;1.00
3281;DHT22;1652;51.318;6.202;2023-03-21T14:40:33;15.80;1.00
3281;DHT22;1652;51.318;6.202;2023-03-21T14:43:05;15.80;1.00
3281;DHT22;1652;51.318;6.202;2023-03-21T14:45:34;15.70;1.00
3281;DHT22;1652;51.318;6.202;2023-03-21T14:48:11;15.60;1.00
3281;DHT22;1652;51.318;6.202;2023-03-21T14:50:45;15.50;1.00
3281;DHT22;1652;51.318;6.202;2023-03-21T14:53:25;15.60;1.00
3281;DHT22;1652;51.318;6.202;2023-03-21T14:55:57;15.60;1.00
3281;DHT22;1652;51.318;6.202;2023-03-21T14:58:25;15.70;1.00
3281;DHT22;1652;51.318;6.202;2023-03-21T15:00:54;15.60;1.00
3281;DHT22;1652;51.318;6.202;2023-03-21T15:03:23;15.60;1.00
3281;DHT22;1652;51.318;6.202;2023-03-21T15:05:54;15.60;1.00
3281;DHT22;1652;51.318;6.202;2023-03-21T15:08:23;15.50;1.00
3281;DHT22;1652;51.318;6.202;2023-03-21T15:11:11;15.50;1.00
3281;DHT22;1652;51.318;6.202;2023-03-21T15:13:47;15.50;1.00
3281;DHT22;1652;51.318;6.202;2023-03-21T15:16:18;15.50;1.00
3281;DHT22;1652;51.318;6.202;2023-03-21T15:18:47;15.60;1.00
3281;DHT22;1652;51.318;6.202;2023-03-21T15:21:24;15.60;1.00
3281;DHT22;1652;51.318;6.202;2023-03-21T15:23:55;15.50;1.00
3281;DHT22;1652;51.318;6.202;2023-03-21T15:26:24;15.30;1.00
3281;DHT22;1652;51.318;6.202;2023-03-21T15:28:56;15.20;1.00
3281;DHT22;1652;51.318;6.202;2023-03-21T15:31:30;15.10;1.00
3281;DHT22;1652;51.318;6.202;2023-03-21T15:34:00;15.10;1.00
3281;DHT22;1652;51.318;6.202;2023-03-21T15:36:32;15.00;1.00
3281;DHT22;1652;51.318;6.202;2023-03-21T15:39:01;15.00;1.00
3281;DHT22;1652;51.318;6.202;2023-03-21T15:41:31;14.90;1.00
3281;DHT22;1652;51.318;6.202;2023-03-21T15:44:32;14.80;1.00
3281;DHT22;1652;51.318;6.202;2023-03-21T15:46:52;14.80;1.00
3281;DHT22;1652;51.318;6.202;2023-03-21T15:49:24;14.90;1.00
3281;DHT22;1652;51.318;6.202;2023-03-21T15:52:05;14.90;1.00
3281;DHT22;1652;51.318;6.202;2023-03-21T15:54:42;14.80;1.00
3281;DHT22;1652;51.318;6.202;2023-03-21T15:57:22;14.90;1.00
3281;DHT22;1652;51.318;6.202;2023-03-21T15:59:55;14.90;1.00
3281;DHT22;1652;51.318;6.202;2023-03-21T16:02:28;14.90;1.00
3281;DHT22;1652;51.318;6.202;2023-03-21T16:07:24;15.00;1.00
3281;DHT22;1652;51.318;6.202;2023-03-21T16:09:59;15.00;1.00
3281;DHT22;1652;51.318;6.202;2023-03-21T16:12:26;15.00;1.00
3281;DHT22;1652;51.318;6.202;2023-03-21T16:14:53;14.90;1.00
3281;DHT22;1652;51.318;6.202;2023-03-21T16:17:33;14.90;1.00
3281;DHT22;1652;51.318;6.202;2023-03-21T16:20:14;14.90;1.00
3281;DHT22;1652;51.318;6.202;2023-03-21T16:22:43;14.90;1.00
3281;DHT22;1652;51.318;6.202;2023-03-21T16:25:09;15.00;1.00
3281;DHT22;1652;51.318;6.202;2023-03-21T16:27:36;15.00;1.00
3281;DHT22;1652;51.318;6.202;2023-03-21T16:30:04;15.00;1.00
3281;DHT22;1652;51.318;6.202;2023-03-21T16:32:32;15.00;1.00
3281;DHT22;1652;51.318;6.202;2023-03-21T16:35:00;15.00;1.00
3281;DHT22;1652;51.318;6.202;2023-03-21T16:37:26;14.90;1.00
3281;DHT22;1652;51.318;6.202;2023-03-21T16:39:53;14.90;1.00
3281;DHT22;1652;51.318;6.202;2023-03-21T16:42:20;14.80;1.00
3281;DHT22;1652;51.318;6.202;2023-03-21T16:44:47;14.70;1.00
3281;DHT22;1652;51.318;6.202;2023-03-21T16:47:15;14.60;1.00
3281;DHT22;1652;51.318;6.202;2023-03-21T16:49:43;14.60;1.00
3281;DHT22;1652;51.318;6.202;2023-03-21T16:52:11;14.40;1.00
3281;DHT22;1652;51.318;6.202;2023-03-21T16:54:39;14.40;1.00
3281;DHT22;1652;51.318;6.202;2023-03-21T16:57:08;14.30;1.00
3281;DHT22;1652;51.318;6.202;2023-03-21T16:59:42;14.30;1.00
3281;DHT22;1652;51.318;6.202;2023-03-21T17:02:13;14.30;1.00
3281;DHT22;1652;51.318;6.202;2023-03-21T17:04:42;14.10;1.00
3281;DHT22;1652;51.318;6.202;2023-03-21T17:07:11;13.90;1.00
3281;DHT22;1652;51.318;6.202;2023-03-21T17:09:42;13.60;15.40
3281;DHT22;1652;51.318;6.202;2023-03-21T17:12:11;13.60;18.80
3281;DHT22;1652;51.318;6.202;2023-03-21T17:14:40;13.40;37.40
3281;DHT22;1652;51.318;6.202;2023-03-21T17:17:12;13.40;43.60
3281;DHT22;1652;51.318;6.202;2023-03-21T17:19:39;13.20;45.90
3281;DHT22;1652;51.318;6.202;2023-03-21T17:22:06;13.10;54.90
3281;DHT22;1652;51.318;6.202;2023-03-21T17:24:34;13.10;57.80
3281;DHT22;1652;51.318;6.202;2023-03-21T17:27:02;13.10;55.80
3281;DHT22;1652;51.318;6.202;2023-03-21T17:29:29;13.10;55.90
3281;DHT22;1652;51.318;6.202;2023-03-21T17:31:56;13.10;55.40
3281;DHT22;1652;51.318;6.202;2023-03-21T17:34:23;13.10;53.20
3281;DHT22;1652;51.318;6.202;2023-03-21T17:36:50;13.10;50.50
3281;DHT22;1652;51.318;6.202;2023-03-21T17:39:25;13.00;59.50
3281;DHT22;1652;51.318;6.202;2023-03-21T17:41:52;13.10;55.60
3281;DHT22;1652;51.318;6.202;2023-03-21T17:44:20;13.10;37.20
3281;DHT22;1652;51.318;6.202;2023-03-21T17:46:47;13.00;46.70
3281;DHT22;1652;51.318;6.202;2023-03-21T17:49:17;13.00;35.50
3281;DHT22;1652;51.318;6.202;2023-03-21T17:51:44;13.10;30.20
3281;DHT22;1652;51.318;6.202;2023-03-21T17:54:12;13.10;33.00
3281;DHT22;1652;51.318;6.202;2023-03-21T17:56:39;13.10;36.10
3281;DHT22;1652;51.318;6.202;2023-03-21T17:59:11;13.10;33.70
3281;DHT22;1652;51.318;6.202;2023-03-21T18:01:38;13.20;31.00
3281;DHT22;1652;51.318;6.202;2023-03-21T18:04:05;13.10;31.40
3281;DHT22;1652;51.318;6.202;2023-03-21T18:06:33;13.00;43.60
3281;DHT22;1652;51.318;6.202;2023-03-21T18:11:37;13.10;54.30
3281;DHT22;1652;51.318;6.202;2023-03-21T18:14:04;13.10;51.90
3281;DHT22;1652;51.318;6.202;2023-03-21T18:16:43;13.00;57.80
3281;DHT22;1652;51.318;6.202;2023-03-21T18:19:11;13.00;62.10
3281;DHT22;1652;51.318;6.202;2023-03-21T18:21:38;13.10;57.20
3281;DHT22;1652;51.318;6.202;2023-03-21T18:24:12;13.10;61.10
3281;DHT22;1652;51.318;6.202;2023-03-21T18:26:39;13.10;70.20
3281;DHT22;1652;51.318;6.202;2023-03-21T18:29:06;13.10;62.00
3281;DHT22;1652;51.318;6.202;2023-03-21T18:31:53;13.10;75.80
3281;DHT22;1652;51.318;6.202;2023-03-21T18:34:33;13.10;78.70
3281;DHT22;1652;51.318;6.202;2023-03-21T18:37:00;13.10;86.20
3281;DHT22;1652;51.318;6.202;2023-03-21T18:39:30;13.10;84.40
3281;DHT22;1652;51.318;6.202;2023-03-21T18:41:57;13.00;89.50
3281;DHT22;1652;51.318;6.202;2023-03-21T18:44:26;13.10;88.80
3281;DHT22;1652;51.318;6.202;2023-03-21T18:46:56;13.10;91.40
3281;DHT22;1652;51.318;6.202;2023-03-21T18:49:23;13.00;92.60
3281;DHT22;1652;51.318;6.202;2023-03-21T18:52:10;13.00;93.90
3281;DHT22;1652;51.318;6.202;2023-03-21T18:54:37;13.00;94.60
3281;DHT22;1652;51.318;6.202;2023-03-21T18:57:05;12.90;98.90
3281;DHT22;1652;51.318;6.202;2023-03-21T18:59:52;13.00;97.70
3281;DHT22;1652;51.318;6.202;2023-03-21T19:02:20;13.00;96.40
3281;DHT22;1652;51.318;6.202;2023-03-21T19:04:47;12.90;99.90
3281;DHT22;1652;51.318;6.202;2023-03-21T19:07:14;12.80;99.90
3281;DHT22;1652;51.318;6.202;2023-03-21T19:09:41;12.70;99.90